createdAt,value
2022-09-07T00:03:55.890Z,68.51
2022-09-07T00:13:59.191Z,68.10
2022-09-07T00:24:04.529Z,68.24
2022-09-07T00:34:07.762Z,68.62
2022-09-07T00:44:48.307Z,68.23
2022-09-07T00:54:55.572Z,68.11
2022-09-07T01:05:06.408Z,67.71
2022-09-07T01:15:14.033Z,68.25
2022-09-07T01:25:29.951Z,68.79
2022-09-07T01:35:42.138Z,68.26
2022-09-07T01:45:47.151Z,68.33
2022-09-07T01:55:54.332Z,68.85
2022-09-07T02:06:00.782Z,68.29
2022-09-07T02:16:07.906Z,67.70
2022-09-07T02:26:15.180Z,69.37
2022-09-07T02:36:22.802Z,68.59
2022-09-07T02:46:32.353Z,67.86
2022-09-07T02:56:47.349Z,68.22
2022-09-07T03:06:54.254Z,68.59
2022-09-07T03:16:58.951Z,68.36
2022-09-07T03:27:02.312Z,68.74
2022-09-07T03:37:07.006Z,68.86
2022-09-07T03:47:10.177Z,68.44
2022-09-07T03:57:14.877Z,67.72
2022-09-07T04:07:18.332Z,68.25
2022-09-07T04:17:23.057Z,67.84
2022-09-07T04:27:26.375Z,68.78
2022-09-07T04:37:31.003Z,68.47
2022-09-07T04:47:34.267Z,68.86
2022-09-07T04:57:39.387Z,69.09
2022-09-07T05:07:42.747Z,69.81
2022-09-07T05:17:47.325Z,70.14
2022-09-07T05:27:51.009Z,69.88
2022-09-07T05:37:55.673Z,69.43
2022-09-07T05:47:58.950Z,67.02
2022-09-07T05:58:03.519Z,61.79
2022-09-07T06:08:06.741Z,57.35
2022-09-07T06:18:11.401Z,54.33
2022-09-07T06:28:14.671Z,51.39
2022-09-07T06:38:19.308Z,49.67
2022-09-07T06:48:22.646Z,47.80
2022-09-07T06:58:27.430Z,45.39
2022-09-07T07:08:30.852Z,46.07
2022-09-07T07:18:36.268Z,45.47
2022-09-07T07:39:05.889Z,46.73
2022-09-07T07:49:09.183Z,48.03
2022-09-07T07:59:15.733Z,46.43
2022-09-07T08:09:19.793Z,47.42
2022-09-07T08:19:24.394Z,46.57
2022-09-07T08:29:27.697Z,46.46
2022-09-07T08:39:32.231Z,47.07
2022-09-07T08:49:42.644Z,45.68
2022-09-07T08:59:47.639Z,45.31
2022-09-07T09:10:14.087Z,44.98
2022-09-07T09:20:25.942Z,43.61
2022-09-07T09:30:29.385Z,44.26
2022-09-07T09:40:35.329Z,41.70
2022-09-07T10:01:23.809Z,40.69
2022-09-07T10:22:23.948Z,41.14
2022-09-07T10:32:53.916Z,40.08
2022-09-07T10:43:21.456Z,39.00
2022-09-07T10:53:44.645Z,40.38
2022-09-07T11:04:13.759Z,39.91
2022-09-07T11:14:19.608Z,37.73
2022-09-07T11:24:28.072Z,38.83
2022-09-07T11:34:33.219Z,38.82
2022-09-07T11:44:43.570Z,38.69
2022-09-07T11:54:50.319Z,35.91
2022-09-07T12:05:06.035Z,37.33
2022-09-07T12:15:18.042Z,34.80
2022-09-07T12:25:22.585Z,34.08
2022-09-07T12:35:40.461Z,36.92
2022-09-07T12:45:53.010Z,35.42
2022-09-07T12:56:16.384Z,32.72
2022-09-07T13:17:33.961Z,34.62
2022-09-07T13:27:46.809Z,32.47
2022-09-07T13:37:53.695Z,33.00
2022-09-07T13:48:05.247Z,31.74
2022-09-07T13:58:17.129Z,32.17
2022-09-07T14:08:29.157Z,32.94
2022-09-07T14:18:32.923Z,33.71
2022-09-07T14:28:39.710Z,35.44
2022-09-07T14:49:19.284Z,34.22
2022-09-07T14:59:33.430Z,33.34
2022-09-07T15:09:39.168Z,34.74
2022-09-07T15:19:43.037Z,35.61
2022-09-07T15:29:47.516Z,35.59
2022-09-07T15:39:50.834Z,37.74
2022-09-07T15:49:55.517Z,38.82
2022-09-07T15:59:58.824Z,39.57
2022-09-07T16:10:06.042Z,40.50
2022-09-07T16:20:10.199Z,40.67
2022-09-07T16:30:14.989Z,41.84
2022-09-07T16:40:18.393Z,42.54
2022-09-07T16:50:23.547Z,43.08
2022-09-07T17:00:26.870Z,45.35
2022-09-07T17:10:31.320Z,47.14
2022-09-07T17:20:34.417Z,47.20
2022-09-07T17:30:39.392Z,49.84
2022-09-07T17:40:44.035Z,50.42
2022-09-07T17:50:48.488Z,51.86
2022-09-07T18:00:51.995Z,52.86
2022-09-07T18:21:21.592Z,55.26
2022-09-07T18:31:26.907Z,55.88
2022-09-07T18:41:30.851Z,56.41
2022-09-07T18:52:51.684Z,56.16
2022-09-07T19:02:03.204Z,56.85
2022-09-07T19:12:10.064Z,57.69
2022-09-07T19:22:13.250Z,58.20
2022-09-07T19:32:18.079Z,59.07
2022-09-07T19:42:21.178Z,59.13
2022-09-07T19:52:30.091Z,59.83
2022-09-07T20:02:33.294Z,59.90
2022-09-07T20:12:37.789Z,60.18
2022-09-07T20:22:40.852Z,60.63
2022-09-07T20:32:45.421Z,60.55
2022-09-07T20:42:48.506Z,61.24
2022-09-07T20:52:52.963Z,61.17
2022-09-07T21:02:56.083Z,61.25
2022-09-07T21:13:00.585Z,61.56
2022-09-07T21:23:03.696Z,62.22
2022-09-07T21:33:08.125Z,62.05
2022-09-07T21:43:11.315Z,62.41
2022-09-07T21:53:15.770Z,62.69
2022-09-07T22:03:19.052Z,62.67
2022-09-07T22:13:23.528Z,63.50
2022-09-07T22:23:27.014Z,64.08
2022-09-07T22:33:31.604Z,64.09
2022-09-07T22:43:34.823Z,64.32
2022-09-07T22:53:40.637Z,64.40
2022-09-07T23:03:44.560Z,64.89
2022-09-07T23:13:51.533Z,64.70
2022-09-07T23:23:55.610Z,65.46
2022-09-07T23:34:01.066Z,65.12
2022-09-07T23:44:04.689Z,65.30
2022-09-07T23:54:09.304Z,65.51
